Time;durP1;ratioP1;P1;durP2;ratioP2;P2;SDS_P1;SDS_P2;PMS_P1;PMS_P2;Temp;Humidity;BMP_temperature;BMP_pressure;BME280_temperature;BME280_humidity;BME280_pressure;Samples;Min_cycle;Max_cycle;Signal;HPM_P1;HPM_P2
2021/05/19 00:02:22;;;;;;;24.77;22.13;;;9.20;99.90;;;;;;5053556;28;20198;-64
2021/05/19 00:04:47;;;;;;;24.77;20.33;;;9.20;99.90;;;;;;5037462;28;20293;-63
2021/05/19 00:07:13;;;;;;;28.90;21.97;;;9.20;99.90;;;;;;5033624;28;20199;-64
2021/05/19 00:09:38;;;;;;;27.50;21.57;;;9.20;99.90;;;;;;5047532;28;20189;-64
2021/05/19 00:12:04;;;;;;;25.17;22.53;;;9.20;99.90;;;;;;5053220;28;20587;-64
2021/05/19 00:14:30;;;;;;;28.13;24.33;;;9.20;99.90;;;;;;5040744;28;20187;-64
2021/05/19 00:16:56;;;;;;;25.87;22.50;;;9.20;99.90;;;;;;5041786;28;20577;-64
2021/05/19 00:19:22;;;;;;;24.37;21.63;;;9.20;99.90;;;;;;5050443;28;20189;-64
2021/05/19 00:21:48;;;;;;;27.27;22.73;;;9.20;99.90;;;;;;5033048;28;20179;-64
2021/05/19 00:24:14;;;;;;;28.13;22.23;;;9.30;99.90;;;;;;5033134;28;20242;-64
2021/05/19 00:26:40;;;;;;;25.37;22.83;;;9.20;99.90;;;;;;5053438;28;20205;-63
2021/05/19 00:29:12;;;;;;;29.13;22.53;;;9.30;99.90;;;;;;5053314;28;20179;-64
2021/05/19 00:31:42;;;;;;;26.03;21.93;;;9.30;99.90;;;;;;5032670;28;20175;-64
2021/05/19 00:34:12;;;;;;;23.17;20.90;;;9.30;99.90;;;;;;5033091;28;20179;-64
2021/05/19 00:36:39;;;;;;;23.30;20.33;;;9.30;99.90;;;;;;5033136;28;20214;-63
2021/05/19 00:39:07;;;;;;;20.93;18.53;;;9.30;99.90;;;;;;5033100;28;20230;-63
2021/05/19 00:41:33;;;;;;;23.57;20.00;;;9.30;99.90;;;;;;5050617;28;20208;-64
2021/05/19 00:44:07;;;;;;;20.67;18.70;;;9.20;99.90;;;;;;5051820;28;20194;-64
2021/05/19 00:46:34;;;;;;;20.80;18.70;;;9.30;99.90;;;;;;5050447;28;20612;-63
2021/05/19 00:49:00;;;;;;;21.50;18.50;;;9.30;99.90;;;;;;5040019;28;20167;-64
2021/05/19 00:51:26;;;;;;;20.07;17.40;;;9.20;99.90;;;;;;5032322;28;20175;-63
2021/05/19 00:53:53;;;;;;;23.13;17.07;;;9.20;99.90;;;;;;5043596;28;20197;-64
2021/05/19 00:56:19;;;;;;;18.30;16.20;;;9.20;99.90;;;;;;5052487;28;20285;-64
2021/05/19 00:58:45;;;;;;;21.73;16.93;;;9.20;99.90;;;;;;5043016;28;20258;-63
2021/05/19 01:01:11;;;;;;;18.40;16.50;;;9.10;99.90;;;;;;5032457;28;20183;-64
2021/05/19 01:03:37;;;;;;;18.93;16.93;;;9.20;99.90;;;;;;5039948;28;20566;-63
2021/05/19 01:06:07;;;;;;;20.03;18.07;;;9.20;99.90;;;;;;5052295;28;20636;-63
2021/05/19 01:11:17;;;;;;;19.67;17.57;;;9.20;99.90;;;;;;5032066;28;20217;-63
2021/05/19 01:13:45;;;;;;;20.83;17.23;;;9.20;99.90;;;;;;5046167;28;20187;-64
2021/05/19 01:16:12;;;;;;;21.03;18.17;;;9.20;99.90;;;;;;5052180;28;20579;-64
2021/05/19 01:18:41;;;;;;;20.73;18.03;;;9.30;99.90;;;;;;5038969;28;20184;-64
2021/05/19 01:21:09;;;;;;;20.50;18.40;;;9.30;99.90;;;;;;5033246;28;20225;-63
2021/05/19 01:23:37;;;;;;;19.93;17.97;;;9.30;99.90;;;;;;5042790;28;20187;-63
2021/05/19 01:26:05;;;;;;;20.53;18.23;;;9.40;99.90;;;;;;5040403;28;20206;-63
2021/05/19 01:28:31;;;;;;;21.03;18.83;;;9.40;99.90;;;;;;5031915;28;20168;-64
2021/05/19 01:30:56;;;;;;;20.60;18.50;;;9.40;99.90;;;;;;5041246;28;20224;-63
2021/05/19 01:33:22;;;;;;;20.30;18.17;;;9.40;99.90;;;;;;5051934;28;20554;-64
2021/05/19 01:35:48;;;;;;;18.97;16.53;;;9.50;99.90;;;;;;5043904;28;20290;-64
2021/05/19 01:38:14;;;;;;;19.63;17.60;;;9.50;99.90;;;;;;5032035;28;20225;-64
2021/05/19 01:40:40;;;;;;;19.03;17.13;;;9.50;99.90;;;;;;5037629;28;20200;-64
2021/05/19 01:43:06;;;;;;;18.63;16.77;;;9.50;99.90;;;;;;5034657;28;20194;-64
2021/05/19 01:45:32;;;;;;;17.30;15.67;;;9.50;99.90;;;;;;5036082;28;20206;-64
2021/05/19 01:47:58;;;;;;;17.30;15.67;;;9.50;99.90;;;;;;5051877;28;20179;-64
2021/05/19 01:50:27;;;;;;;19.37;16.50;;;9.60;99.90;;;;;;5048646;28;20182;-66
2021/05/19 01:52:56;;;;;;;17.70;15.93;;;9.60;99.90;;;;;;5032866;28;20172;-65
2021/05/19 01:55:23;;;;;;;17.80;15.97;;;9.60;99.90;;;;;;5034848;28;20168;-67
2021/05/19 01:57:49;;;;;;;18.37;16.67;;;9.60;99.90;;;;;;5052808;28;20186;-69
2021/05/19 02:00:17;;;;;;;16.70;15.17;;;9.70;99.90;;;;;;5051787;28;20175;-68
2021/05/19 02:02:43;;;;;;;17.77;16.07;;;9.70;99.90;;;;;;5032875;28;20175;-69
2021/05/19 02:05:14;;;;;;;17.13;15.47;;;9.70;99.90;;;;;;5032697;28;20694;-66
2021/05/19 02:07:40;;;;;;;18.83;17.23;;;9.70;99.90;;;;;;5034700;28;20595;-65
2021/05/19 02:10:08;;;;;;;18.93;17.23;;;9.70;99.90;;;;;;5052332;28;20225;-66
2021/05/19 02:12:34;;;;;;;19.57;17.57;;;9.70;99.90;;;;;;5033966;28;20214;-65
2021/05/19 02:15:00;;;;;;;19.70;17.87;;;9.80;99.90;;;;;;5048037;28;20189;-67
2021/05/19 02:17:28;;;;;;;20.37;18.47;;;9.80;99.90;;;;;;5052511;28;20191;-66
2021/05/19 02:19:55;;;;;;;21.23;19.13;;;9.80;99.90;;;;;;5033051;28;20211;-66
2021/05/19 02:22:22;;;;;;;20.23;18.23;;;9.70;99.90;;;;;;5032237;28;20168;-69
2021/05/19 02:24:48;;;;;;;21.07;19.10;;;9.70;99.90;;;;;;5050741;28;20650;-67
2021/05/19 02:27:14;;;;;;;21.63;19.60;;;9.70;99.90;;;;;;5052400;28;20202;-67
2021/05/19 02:29:40;;;;;;;23.23;20.97;;;9.70;99.90;;;;;;5035027;28;20187;-66
2021/05/19 02:32:07;;;;;;;22.70;20.17;;;9.60;99.90;;;;;;5014513;28;20183;-66
2021/05/19 02:34:33;;;;;;;23.77;21.40;;;9.60;99.90;;;;;;5029459;28;20186;-66
2021/05/19 02:36:58;;;;;;;24.57;22.07;;;9.50;99.90;;;;;;5052406;28;20195;-66
2021/05/19 02:39:24;;;;;;;24.37;21.97;;;9.50;99.90;;;;;;5042376;28;20175;-67
2021/05/19 02:41:50;;;;;;;25.67;23.17;;;9.50;99.90;;;;;;5035195;28;20183;-66
2021/05/19 02:44:15;;;;;;;23.83;21.53;;;9.40;99.90;;;;;;5048000;28;20190;-68
2021/05/19 02:46:41;;;;;;;27.87;25.27;;;9.40;99.90;;;;;;5055999;28;20190;-68
2021/05/19 02:49:07;;;;;;;27.07;24.17;;;9.40;99.90;;;;;;5046259;28;20176;-68
2021/05/19 02:51:34;;;;;;;26.03;23.43;;;9.40;99.90;;;;;;5035791;28;20186;-66
2021/05/19 02:54:01;;;;;;;26.47;23.77;;;9.40;99.90;;;;;;5043854;28;20216;-66
2021/05/19 02:56:27;;;;;;;25.63;22.97;;;9.40;99.90;;;;;;5049861;28;20214;-67
2021/05/19 02:58:53;;;;;;;27.33;24.63;;;9.50;99.90;;;;;;5035699;28;20171;-67
2021/05/19 03:01:19;;;;;;;29.67;26.67;;;9.50;99.90;;;;;;5039198;28;20189;-66
2021/05/19 03:03:45;;;;;;;29.70;26.57;;;9.40;99.90;;;;;;5055505;28;20179;-66
2021/05/19 03:06:11;;;;;;;29.30;26.30;;;9.40;99.90;;;;;;5053297;28;20215;-70
2021/05/19 03:08:37;;;;;;;28.83;24.77;;;9.40;99.90;;;;;;5017700;28;20176;-66
2021/05/19 03:11:04;;;;;;;26.70;24.00;;;9.30;99.90;;;;;;5036052;28;20186;-65
2021/05/19 03:13:30;;;;;;;27.80;25.10;;;9.30;99.90;;;;;;5055205;28;20159;-66
2021/05/19 03:15:56;;;;;;;26.93;24.13;;;9.30;99.90;;;;;;5055282;28;20202;-66
2021/05/19 03:18:21;;;;;;;28.00;25.00;;;9.30;99.90;;;;;;5035820;28;20175;-67
2021/05/19 03:20:47;;;;;;;27.57;24.80;;;9.40;99.90;;;;;;5034989;28;20195;-66
2021/05/19 03:23:13;;;;;;;26.10;23.40;;;9.30;99.90;;;;;;5052554;28;20183;-66
2021/05/19 03:25:39;;;;;;;25.30;22.77;;;9.30;99.90;;;;;;5040411;28;20211;-68
2021/05/19 03:28:05;;;;;;;26.60;23.90;;;9.20;99.90;;;;;;5035472;28;20206;-69
2021/05/19 03:30:31;;;;;;;26.57;23.83;;;9.20;99.90;;;;;;5047446;28;20605;-67
2021/05/19 03:32:56;;;;;;;23.90;21.40;;;9.20;99.90;;;;;;5055423;28;20201;-65
2021/05/19 03:35:22;;;;;;;25.03;22.63;;;9.20;99.90;;;;;;5044384;28;20183;-67
2021/05/19 03:37:48;;;;;;;23.37;21.07;;;9.20;99.90;;;;;;5035383;28;20179;-66
2021/05/19 03:40:15;;;;;;;24.30;21.70;;;9.20;99.90;;;;;;5043581;28;20179;-65
2021/05/19 03:42:41;;;;;;;23.03;20.63;;;9.20;99.90;;;;;;5055315;28;20174;-67
2021/05/19 03:45:10;;;;;;;22.20;20.07;;;9.10;99.90;;;;;;5040193;28;20226;-67
2021/05/19 03:47:36;;;;;;;22.13;19.93;;;9.00;99.90;;;;;;5035285;28;20182;-68
2021/05/19 03:50:03;;;;;;;22.30;20.07;;;9.00;99.90;;;;;;5046470;28;20179;-64
2021/05/19 03:52:32;;;;;;;23.23;20.90;;;9.00;99.90;;;;;;5049655;28;20911;-63
2021/05/19 03:54:59;;;;;;;22.83;20.20;;;8.90;99.90;;;;;;5044657;28;20183;-64
2021/05/19 03:57:25;;;;;;;23.00;20.77;;;8.90;99.90;;;;;;5040472;28;20203;-62
2021/05/19 03:59:50;;;;;;;25.50;22.90;;;8.80;99.90;;;;;;5032540;28;20540;-63
2021/05/19 04:02:16;;;;;;;23.53;20.90;;;8.80;99.90;;;;;;5042698;28;20186;-63
2021/05/19 04:04:42;;;;;;;24.87;22.27;;;8.80;99.90;;;;;;5053499;28;20217;-63
2021/05/19 04:07:08;;;;;;;24.27;21.83;;;8.70;99.90;;;;;;5088966;22;20222;-63
2021/05/19 04:09:33;;;;;;;23.27;20.83;;;8.80;99.90;;;;;;5073361;28;20184;-62
2021/05/19 04:11:59;;;;;;;23.00;20.63;;;8.80;99.90;;;;;;5066564;28;20186;-63
2021/05/19 04:14:25;;;;;;;20.20;18.23;;;8.80;99.90;;;;;;5053431;28;20174;-63
2021/05/19 04:16:50;;;;;;;21.17;18.30;;;8.80;99.90;;;;;;5048989;28;20199;-63
2021/05/19 04:19:16;;;;;;;22.63;18.53;;;8.90;99.90;;;;;;5053298;28;20227;-62
2021/05/19 04:21:41;;;;;;;19.30;17.40;;;8.90;99.90;;;;;;5039848;28;20183;-64
2021/05/19 04:24:08;;;;;;;19.83;17.77;;;8.90;99.90;;;;;;5033312;28;20229;-65
2021/05/19 04:26:33;;;;;;;19.40;17.50;;;8.90;99.90;;;;;;5043006;28;20679;-65
2021/05/19 04:28:59;;;;;;;18.77;16.13;;;9.00;99.90;;;;;;5053132;28;20259;-64
2021/05/19 04:31:24;;;;;;;18.57;15.50;;;9.10;99.90;;;;;;5043378;28;20182;-64
2021/05/19 04:33:50;;;;;;;18.27;16.43;;;9.30;99.90;;;;;;5033127;28;20167;-64
2021/05/19 04:36:16;;;;;;;16.13;14.53;;;9.50;99.90;;;;;;5039997;28;20199;-63
2021/05/19 04:38:42;;;;;;;16.47;14.77;;;9.50;99.90;;;;;;5053027;28;20170;-65
2021/05/19 04:41:08;;;;;;;16.83;13.93;;;9.80;99.90;;;;;;5047011;28;20175;-64
2021/05/19 04:43:34;;;;;;;18.47;13.80;;;10.00;99.90;;;;;;5036712;28;20221;-65
2021/05/19 04:45:59;;;;;;;16.20;13.03;;;10.20;99.90;;;;;;5051875;28;20604;-63
2021/05/19 04:48:27;;;;;;;14.80;13.13;;;10.50;99.90;;;;;;5050309;28;20190;-64
2021/05/19 04:50:53;;;;;;;16.73;13.30;;;10.50;99.90;;;;;;5032395;28;20172;-63
2021/05/19 04:53:19;;;;;;;17.03;12.67;;;10.50;99.90;;;;;;5031967;28;20176;-63
2021/05/19 04:55:44;;;;;;;17.40;12.33;;;10.60;99.90;;;;;;5052404;28;20662;-63
2021/05/19 04:58:10;;;;;;;15.80;12.77;;;10.60;99.90;;;;;;5052579;28;20202;-63
2021/05/19 05:00:37;;;;;;;15.43;12.97;;;10.60;99.90;;;;;;5033226;28;20203;-64
2021/05/19 05:03:03;;;;;;;15.20;12.63;;;10.60;99.90;;;;;;5031993;28;20195;-63
2021/05/19 05:05:29;;;;;;;14.90;13.23;;;10.70;99.90;;;;;;5049340;28;20308;-63
2021/05/19 05:07:55;;;;;;;14.83;13.00;;;10.80;99.90;;;;;;5052251;28;20269;-65
2021/05/19 05:10:21;;;;;;;19.73;13.13;;;10.90;99.90;;;;;;5036545;28;20727;-65
2021/05/19 05:12:49;;;;;;;18.57;12.87;;;11.00;99.90;;;;;;5035844;28;20636;-66
2021/05/19 05:15:15;;;;;;;20.40;12.87;;;11.00;99.90;;;;;;5051526;28;20175;-66
2021/05/19 05:17:41;;;;;;;18.03;13.43;;;11.10;99.90;;;;;;5039934;28;20199;-66
2021/05/19 05:20:10;;;;;;;16.23;12.37;;;11.10;99.90;;;;;;5031824;28;20172;-66
2021/05/19 05:22:36;;;;;;;19.03;12.60;;;11.20;99.90;;;;;;5042214;28;20186;-65
2021/05/19 05:25:03;;;;;;;18.90;12.67;;;11.20;99.90;;;;;;5051937;28;20211;-66
2021/05/19 05:27:29;;;;;;;15.63;12.00;;;11.10;99.90;;;;;;5042634;28;20195;-66
2021/05/19 05:29:55;;;;;;;18.27;11.13;;;11.10;99.90;;;;;;5031626;28;20172;-65
2021/05/19 05:32:20;;;;;;;13.73;11.97;;;11.00;99.90;;;;;;5038643;28;20652;-66
2021/05/19 05:34:46;;;;;;;15.37;12.90;;;11.00;99.90;;;;;;5051847;28;20225;-66
2021/05/19 05:37:12;;;;;;;19.67;12.10;;;11.00;99.90;;;;;;5046418;28;20210;-65
2021/05/19 05:39:37;;;;;;;18.13;11.70;;;11.10;99.90;;;;;;5031870;28;20534;-66
2021/05/19 05:42:03;;;;;;;17.73;11.47;;;11.20;99.90;;;;;;5032620;28;20715;-66
2021/05/19 05:44:29;;;;;;;14.93;12.47;;;11.30;99.90;;;;;;5031525;28;20230;-65
2021/05/19 05:46:54;;;;;;;17.10;11.93;;;11.50;99.90;;;;;;5032846;28;20187;-65
2021/05/19 05:49:20;;;;;;;18.60;11.73;;;11.80;99.90;;;;;;5051467;28;20247;-65
2021/05/19 05:51:45;;;;;;;12.93;9.73;;;12.00;99.90;;;;;;5051355;28;20528;-64
2021/05/19 05:54:12;;;;;;;21.13;9.77;;;12.10;99.90;;;;;;5031848;28;20206;-64
2021/05/19 05:56:40;;;;;;;15.00;9.77;;;12.40;99.90;;;;;;5031507;28;20191;-67
2021/05/19 05:59:06;;;;;;;13.83;10.07;;;12.60;99.90;;;;;;5049489;28;20665;-64
2021/05/19 06:01:32;;;;;;;10.63;9.53;;;12.60;99.90;;;;;;5051162;28;20273;-65
2021/05/19 06:03:57;;;;;;;18.23;10.80;;;12.60;99.90;;;;;;5034937;28;20274;-66
2021/05/19 06:06:23;;;;;;;18.27;9.30;;;12.70;99.90;;;;;;5030786;28;20215;-63
2021/05/19 06:08:49;;;;;;;11.00;8.13;;;12.70;99.90;;;;;;5035032;28;20172;-66
2021/05/19 06:11:14;;;;;;;15.10;8.53;;;12.70;99.90;;;;;;5039547;28;20174;-65
2021/05/19 06:13:40;;;;;;;14.03;7.90;;;13.20;99.90;;;;;;5051399;28;20197;-64
2021/05/19 06:16:05;;;;;;;9.50;6.53;;;13.60;99.90;;;;;;5039100;28;20210;-64
2021/05/19 06:18:31;;;;;;;10.37;7.43;;;14.00;99.90;;;;;;5034836;28;20658;-63
2021/05/19 06:20:57;;;;;;;13.53;7.50;;;14.10;99.90;;;;;;5046777;28;20186;-64
2021/05/19 06:23:23;;;;;;;8.60;6.60;;;14.00;99.90;;;;;;5055064;28;20250;-64
2021/05/19 06:25:48;;;;;;;12.50;6.63;;;14.00;99.90;;;;;;5044639;28;20584;-63
2021/05/19 06:28:14;;;;;;;10.80;6.73;;;13.90;99.90;;;;;;5035445;28;20193;-64
2021/05/19 06:30:39;;;;;;;8.10;6.67;;;14.10;99.90;;;;;;5043006;28;20592;-64
2021/05/19 06:33:05;;;;;;;8.97;6.93;;;14.40;99.90;;;;;;5054990;28;20203;-67
2021/05/19 06:35:31;;;;;;;10.77;6.67;;;14.70;99.90;;;;;;5047917;28;20217;-64
2021/05/19 06:37:57;;;;;;;11.33;6.50;;;15.00;99.90;;;;;;5034999;28;20257;-64
2021/05/19 06:40:23;;;;;;;12.93;7.00;;;15.30;99.90;;;;;;5051407;28;20190;-64
2021/05/19 06:42:49;;;;;;;10.30;5.77;;;15.00;99.90;;;;;;5054942;28;20199;-64
2021/05/19 06:45:15;;;;;;;12.47;6.83;;;15.30;99.90;;;;;;5042562;28;20207;-64
2021/05/19 06:47:41;;;;;;;6.97;5.20;;;15.70;99.90;;;;;;5035261;28;20191;-64
2021/05/19 06:50:07;;;;;;;8.97;5.93;;;16.10;99.90;;;;;;5048990;28;20523;-66
2021/05/19 06:52:33;;;;;;;9.77;5.90;;;16.40;99.90;;;;;;5054784;28;20178;-66
2021/05/19 06:55:01;;;;;;;13.03;5.93;;;16.90;99.90;;;;;;5042471;28;20183;-65
2021/05/19 06:57:27;;;;;;;8.60;5.37;;;17.00;99.90;;;;;;5035078;28;20192;-64
2021/05/19 06:59:52;;;;;;;7.13;4.70;;;17.30;99.90;;;;;;5044880;28;20220;-66
2021/05/19 07:02:18;;;;;;;10.20;5.17;;;17.50;99.90;;;;;;5054595;28;20697;-66
2021/05/19 07:04:44;;;;;;;8.80;4.70;;;17.50;99.90;;;;;;5043813;28;20202;-66
2021/05/19 07:07:09;;;;;;;9.03;5.13;;;17.40;99.90;;;;;;5040526;28;20723;-65
2021/05/19 07:09:36;;;;;;;8.23;4.73;;;17.00;99.90;;;;;;5054099;28;20228;-65
2021/05/19 07:12:02;;;;;;;9.37;5.00;;;16.30;99.90;;;;;;5049043;28;20684;-66
2021/05/19 07:14:28;;;;;;;6.73;5.23;;;15.40;99.90;;;;;;5034312;28;20764;-66
2021/05/19 07:16:54;;;;;;;14.37;4.70;;;15.30;99.90;;;;;;5036900;28;20278;-67
2021/05/19 07:19:21;;;;;;;6.53;3.57;;;15.40;99.90;;;;;;5053932;28;20163;-64
2021/05/19 07:21:47;;;;;;;8.77;4.10;;;16.00;99.90;;;;;;5052036;28;20190;-65
2021/05/19 07:24:13;;;;;;;7.63;4.33;;;16.50;99.90;;;;;;5034050;28;20655;-66
2021/05/19 07:26:44;;;;;;;6.80;3.63;;;16.80;99.90;;;;;;5033697;28;20192;-66
2021/05/19 07:29:11;;;;;;;11.03;4.43;;;17.00;99.90;;;;;;5053228;28;20321;-66
2021/05/19 07:31:36;;;;;;;11.13;3.83;;;16.70;99.90;;;;;;5053499;28;20175;-66
2021/05/19 07:34:03;;;;;;;6.47;4.27;;;16.70;99.90;;;;;;5034592;28;20191;-67
2021/05/19 07:36:29;;;;;;;7.03;3.60;;;16.90;99.90;;;;;;5050053;28;20280;-65
2021/05/19 07:38:56;;;;;;;7.57;3.67;;;17.30;99.90;;;;;;5042410;28;20190;-65
2021/05/19 07:41:23;;;;;;;7.80;4.20;;;17.40;99.90;;;;;;5033142;28;20199;-66
2021/05/19 07:43:50;;;;;;;8.03;3.60;;;17.20;99.90;;;;;;5043315;28;20186;-66
2021/05/19 07:46:15;;;;;;;5.33;3.70;;;16.90;99.90;;;;;;5053418;28;20190;-64
2021/05/19 07:48:41;;;;;;;7.50;3.97;;;17.00;99.90;;;;;;5045565;28;20263;-64
2021/05/19 07:51:07;;;;;;;8.53;4.43;;;17.00;99.90;;;;;;5047180;28;20179;-64
2021/05/19 07:53:32;;;;;;;9.30;3.70;;;17.10;99.90;;;;;;5051909;28;20178;-65
2021/05/19 07:56:05;;;;;;;6.00;3.80;;;17.20;99.90;;;;;;5053317;28;20191;-65
2021/05/19 07:58:40;;;;;;;7.80;3.60;;;17.30;99.90;;;;;;5047668;28;20189;-65
2021/05/19 08:03:35;;;;;;;5.33;3.87;;;16.30;99.90;;;;;;5038927;28;20643;-65
2021/05/19 08:06:00;;;;;;;6.90;3.80;;;16.20;99.90;;;;;;5053123;28;20244;-63
2021/05/19 08:08:26;;;;;;;4.83;3.40;;;16.10;99.90;;;;;;5049392;28;20540;-65
2021/05/19 08:10:52;;;;;;;7.00;4.10;;;16.00;99.90;;;;;;5033325;28;20652;-66
2021/05/19 08:13:18;;;;;;;10.53;3.70;;;15.70;99.90;;;;;;5034428;28;20178;-63
2021/05/19 08:15:44;;;;;;;4.70;3.10;;;15.40;99.90;;;;;;5052488;28;20178;-65
2021/05/19 08:18:11;;;;;;;6.90;4.23;;;15.20;99.90;;;;;;5049431;28;20286;-65
2021/05/19 08:20:38;;;;;;;10.07;3.77;;;14.90;99.90;;;;;;5033036;28;20175;-63
2021/05/19 08:23:04;;;;;;;7.83;3.40;;;14.80;99.90;;;;;;5035497;28;20249;-66
2021/05/19 08:25:30;;;;;;;9.90;3.90;;;14.80;99.90;;;;;;5053120;28;20676;-66
2021/05/19 08:27:56;;;;;;;5.50;3.23;;;15.00;99.90;;;;;;5036676;28;20176;-65
2021/05/19 08:30:22;;;;;;;7.30;3.33;;;15.20;99.90;;;;;;5032255;28;20171;-66
2021/05/19 08:32:48;;;;;;;7.93;4.10;;;15.20;99.90;;;;;;5044980;28;20194;-66
2021/05/19 08:35:14;;;;;;;5.47;3.40;;;15.30;99.90;;;;;;5033408;28;20202;-64
2021/05/19 08:37:40;;;;;;;8.57;3.77;;;15.60;99.90;;;;;;5051387;28;20257;-64
2021/05/19 08:40:07;;;;;;;3.73;3.13;;;15.90;99.90;;;;;;5051967;28;20182;-66
2021/05/19 08:42:36;;;;;;;11.00;3.80;;;15.90;99.90;;;;;;5040911;28;20183;-66
2021/05/19 08:45:05;;;;;;;8.03;4.03;;;15.80;99.90;;;;;;5032552;28;20291;-65
2021/05/19 08:47:30;;;;;;;9.93;4.27;;;15.70;99.90;;;;;;5042415;28;20731;-64
2021/05/19 08:49:56;;;;;;;6.83;3.50;;;15.80;99.90;;;;;;5052327;28;20173;-64
2021/05/19 08:52:22;;;;;;;5.63;3.70;;;16.10;99.90;;;;;;5042929;28;20185;-64
2021/05/19 08:54:50;;;;;;;17.53;7.20;;;16.20;99.90;;;;;;5038284;28;20182;-65
2021/05/19 08:57:17;;;;;;;8.40;5.23;;;16.40;99.90;;;;;;5052069;28;20189;-64
2021/05/19 08:59:44;;;;;;;8.80;5.30;;;16.40;99.90;;;;;;5047276;28;20175;-63
2021/05/19 09:02:11;;;;;;;5.83;3.60;;;16.60;99.90;;;;;;5032236;28;20172;-64
2021/05/19 09:04:37;;;;;;;6.37;3.07;;;16.60;99.90;;;;;;5035129;28;20199;-64
2021/05/19 09:07:03;;;;;;;9.20;3.60;;;16.50;99.90;;;;;;5051772;28;20747;-65
2021/05/19 09:09:33;;;;;;;8.17;4.27;;;16.70;99.90;;;;;;5050136;28;20167;-64
2021/05/19 09:12:16;;;;;;;10.37;4.10;;;16.90;99.90;;;;;;5031721;28;20564;-65
2021/05/19 09:14:43;;;;;;;5.87;3.40;;;17.10;99.90;;;;;;5034609;28;20185;-63
2021/05/19 09:17:20;;;;;;;5.07;3.07;;;17.20;99.90;;;;;;5050836;28;20676;-64
2021/05/19 09:19:47;;;;;;;8.73;3.13;;;17.40;99.90;;;;;;5048766;28;20198;-63
2021/05/19 09:22:24;;;;;;;4.17;2.70;;;17.40;99.90;;;;;;5031837;28;20198;-64
2021/05/19 09:24:51;;;;;;;3.83;2.80;;;17.20;99.90;;;;;;5051998;28;20198;-64
2021/05/19 09:27:18;;;;;;;3.73;2.80;;;17.20;99.90;;;;;;5050837;28;20222;-64
2021/05/19 09:29:46;;;;;;;6.17;2.63;;;17.20;99.90;;;;;;5031687;28;20637;-65
2021/05/19 09:32:13;;;;;;;4.30;2.93;;;17.60;99.90;;;;;;5031611;28;20179;-64
2021/05/19 09:34:44;;;;;;;10.00;3.60;;;17.90;99.90;;;;;;5050793;28;20187;-63
2021/05/19 09:37:30;;;;;;;8.20;3.67;;;18.10;99.90;;;;;;5051476;28;20230;-64
2021/05/19 09:39:57;;;;;;;4.80;2.60;;;18.10;99.90;;;;;;5031365;28;20188;-64
2021/05/19 09:42:35;;;;;;;10.57;3.40;;;18.30;99.90;;;;;;5031592;28;20183;-65
2021/05/19 09:45:27;;;;;;;8.77;3.00;;;18.60;99.90;;;;;;5031583;28;20211;-64
2021/05/19 09:47:57;;;;;;;6.57;2.80;;;19.30;99.90;;;;;;5034224;28;20717;-64
2021/05/19 09:50:33;;;;;;;3.78;2.67;;;20.30;99.90;;;;;;5050994;28;20183;-64
2021/05/19 09:53:13;;;;;;;4.40;2.58;;;20.60;99.90;;;;;;5048022;28;20171;-64
2021/05/19 09:55:41;;;;;;;7.67;2.83;;;20.80;99.90;;;;;;5031444;28;20242;-64
2021/05/19 09:58:10;;;;;;;7.10;3.00;;;20.30;99.90;;;;;;5034020;28;20264;-64
2021/05/19 10:00:36;;;;;;;7.30;2.87;;;20.30;99.90;;;;;;5051022;28;20182;-64
2021/05/19 10:03:03;;;;;;;8.50;3.10;;;20.00;99.90;;;;;;5040079;28;20656;-65
2021/05/19 10:05:36;;;;;;;6.05;3.03;;;20.20;99.90;;;;;;5041009;28;20209;-64
2021/05/19 10:08:02;;;;;;;5.37;2.40;;;20.50;99.90;;;;;;5050779;28;20183;-64
2021/05/19 10:10:28;;;;;;;8.43;3.17;;;20.10;99.90;;;;;;5040488;28;20178;-65
2021/05/19 10:12:54;;;;;;;6.97;3.27;;;19.80;99.90;;;;;;5034872;28;20257;-65
2021/05/19 10:15:23;;;;;;;6.50;3.20;;;20.00;99.90;;;;;;5123410;22;20234;-67
2021/05/19 10:17:55;;;;;;;4.27;2.87;;;20.20;99.90;;;;;;5070975;28;20211;-68
2021/05/19 10:20:25;;;;;;;6.93;3.07;;;20.20;99.90;;;;;;5070672;28;20197;-67
2021/05/19 10:22:52;;;;;;;6.10;2.80;;;19.90;99.90;;;;;;5068727;28;20174;-67
2021/05/19 10:25:44;;;;;;;4.37;2.60;;;19.40;99.90;;;;;;5044935;28;20226;-67
2021/05/19 10:28:15;;;;;;;5.70;2.43;;;19.50;99.90;;;;;;5035702;28;20505;-67
2021/05/19 10:30:51;;;;;;;5.10;2.70;;;19.90;99.90;;;;;;5050764;28;20167;-68
2021/05/19 10:33:29;;;;;;;7.63;3.10;;;20.30;99.90;;;;;;5046062;28;20532;-67
2021/05/19 10:35:56;;;;;;;7.10;2.80;;;21.40;99.90;;;;;;5031283;28;20190;-67
2021/05/19 10:38:29;;;;;;;7.68;2.72;;;22.30;99.90;;;;;;5036145;28;20225;-68
2021/05/19 10:41:00;;;;;;;6.15;2.63;;;23.10;99.90;;;;;;5050924;28;20239;-66
2021/05/19 10:43:45;;;;;;;4.32;2.55;;;23.20;99.90;;;;;;5045592;28;20554;-65
2021/05/19 10:46:13;;;;;;;5.18;2.30;;;23.00;99.90;;;;;;5023968;28;20645;-67
2021/05/19 10:48:39;;;;;;;3.83;2.53;;;22.70;99.90;;;;;;5033514;28;20270;-67
2021/05/19 10:51:33;;;;;;;4.28;2.35;;;22.50;99.90;;;;;;5050836;28;20559;-67
2021/05/19 11:00:16;;;;;;;6.15;3.20;;;20.80;99.90;;;;;;5051076;28;20539;-67
2021/05/19 11:05:36;;;;;;;7.30;3.03;;;19.90;99.90;;;;;;5054484;28;20620;-68
2021/05/19 11:08:08;;;;;;;8.30;3.03;;;19.30;99.90;;;;;;5036448;28;20194;-66
2021/05/19 11:10:38;;;;;;;5.43;3.20;;;18.50;99.90;;;;;;5034284;28;20246;-67
2021/05/19 11:13:05;;;;;;;10.13;3.87;;;17.60;99.90;;;;;;5052225;28;20589;-66
2021/05/19 11:15:44;;;;;;;9.70;5.00;;;16.80;99.90;;;;;;5054196;28;20206;-68
2021/05/19 11:21:18;;;;;;;7.30;3.47;;;15.80;99.90;;;;;;5034561;28;20175;-67
2021/05/19 11:24:11;;;;;;;9.03;3.93;;;15.90;99.90;;;;;;5054531;28;20592;-66
2021/05/19 11:26:40;;;;;;;4.13;3.70;;;16.30;99.90;;;;;;5034348;28;20563;-67
2021/05/19 11:29:07;;;;;;;6.13;3.27;;;16.70;99.90;;;;;;5035820;28;20167;-67
2021/05/19 11:31:40;;;;;;;8.50;3.30;;;17.70;99.90;;;;;;5052497;28;20261;-67
2021/05/19 11:34:06;;;;;;;6.67;3.00;;;18.90;99.90;;;;;;5053134;28;20170;-67
2021/05/19 11:36:33;;;;;;;6.20;2.43;;;19.90;99.90;;;;;;5034056;28;20191;-67
2021/05/19 11:39:04;;;;;;;8.90;3.40;;;20.40;99.90;;;;;;5033092;28;20199;-68
2021/05/19 11:41:30;;;;;;;6.70;3.40;;;20.50;99.90;;;;;;5033786;28;20698;-67
2021/05/19 11:43:56;;;;;;;5.67;3.10;;;20.30;99.90;;;;;;5033939;28;20178;-67
2021/05/19 11:46:23;;;;;;;5.13;2.83;;;20.50;99.90;;;;;;5052375;28;20209;-67
2021/05/19 11:48:50;;;;;;;7.03;2.97;;;20.20;99.90;;;;;;5053984;28;20254;-66
2021/05/19 11:51:21;;;;;;;8.47;3.73;;;20.00;99.90;;;;;;5036103;28;20176;-68
2021/05/19 11:54:13;;;;;;;8.07;2.77;;;20.00;99.90;;;;;;5048852;28;20179;-67
2021/05/19 11:56:41;;;;;;;11.07;3.00;;;20.10;99.90;;;;;;5049978;28;20211;-67
2021/05/19 11:59:24;;;;;;;5.20;2.90;;;20.20;99.90;;;;;;5036328;28;20180;-68
2021/05/19 12:02:00;;;;;;;6.63;2.70;;;20.10;99.90;;;;;;5033677;28;20572;-67
2021/05/19 12:04:30;;;;;;;4.77;3.00;;;20.40;99.90;;;;;;5052734;28;20289;-68
2021/05/19 12:06:58;;;;;;;7.50;3.10;;;20.60;99.90;;;;;;5049964;28;20195;-67
2021/05/19 12:09:24;;;;;;;4.03;2.80;;;20.70;99.90;;;;;;5033624;28;20258;-68
2021/05/19 12:11:50;;;;;;;6.57;2.60;;;20.60;99.90;;;;;;5040678;28;20320;-67
2021/05/19 12:14:18;;;;;;;5.10;2.77;;;20.30;99.90;;;;;;5052058;28;20228;-67
2021/05/19 12:16:45;;;;;;;4.77;2.63;;;20.20;99.90;;;;;;5046931;28;20208;-66
2021/05/19 12:19:16;;;;;;;3.57;2.60;;;20.20;99.90;;;;;;5033547;28;20183;-67
2021/05/19 12:21:48;;;;;;;4.03;2.23;;;20.00;99.90;;;;;;5046281;28;20175;-67
2021/05/19 12:24:16;;;;;;;3.20;2.27;;;19.40;99.90;;;;;;5051873;28;20251;-67
2021/05/19 12:26:43;;;;;;;3.57;2.50;;;18.60;99.90;;;;;;5039950;28;20203;-67
2021/05/19 12:29:31;;;;;;;5.47;2.80;;;17.90;99.90;;;;;;5033441;28;20633;-67
2021/05/19 12:32:33;;;;;;;3.40;2.60;;;17.40;99.90;;;;;;5046390;28;20659;-64
2021/05/19 12:35:07;;;;;;;2.73;2.53;;;16.90;99.90;;;;;;4971973;28;20698;-68
2021/05/19 12:37:40;;;;;;;2.60;2.40;;;16.70;99.90;;;;;;5040968;28;20559;-67
2021/05/19 12:40:07;;;;;;;2.60;2.40;;;16.50;99.90;;;;;;5052519;28;20178;-67
2021/05/19 12:42:41;;;;;;;2.97;2.77;;;16.20;99.90;;;;;;5034343;28;20213;-67
2021/05/19 12:45:07;;;;;;;3.93;3.00;;;16.30;99.90;;;;;;5052572;28;20237;-67
2021/05/19 12:47:33;;;;;;;2.80;2.30;;;16.90;99.90;;;;;;5034833;28;20179;-68
2021/05/19 12:50:02;;;;;;;2.50;2.30;;;18.20;99.90;;;;;;5047243;28;20178;-67
2021/05/19 12:52:33;;;;;;;2.40;2.20;;;19.70;99.90;;;;;;5052735;28;20558;-68
2021/05/19 12:55:00;;;;;;;5.17;2.20;;;20.80;99.90;;;;;;5038092;28;20286;-68
2021/05/19 12:57:30;;;;;;;4.77;2.20;;;21.50;99.90;;;;;;5032701;28;20538;-68
2021/05/19 13:00:05;;;;;;;3.47;1.95;;;22.00;99.90;;;;;;5033610;28;20199;-67
2021/05/19 13:02:43;;;;;;;4.70;1.70;;;22.40;99.90;;;;;;5032595;28;20175;-67